createdAt,value
2017-09-28T00:00:29.223Z,11.38
2017-09-28T00:02:31.384Z,11.43
2017-09-28T00:03:22.694Z,11.49
2017-09-28T00:05:23.691Z,11.56
2017-09-28T00:06:16.060Z,11.44
2017-09-28T00:08:10.753Z,11.50
2017-09-28T00:09:10.474Z,11.44
2017-09-28T00:11:03.926Z,11.32
2017-09-28T00:12:03.895Z,11.34
2017-09-28T00:14:04.964Z,11.38
2017-09-28T00:14:57.294Z,11.31
2017-09-28T00:16:50.727Z,11.35
2017-09-28T00:17:50.740Z,11.36
2017-09-28T00:19:45.205Z,11.41
2017-09-28T00:20:45.146Z,11.47
2017-09-28T00:22:38.578Z,11.47
2017-09-28T00:23:38.541Z,11.44
2017-09-28T00:25:31.940Z,11.38
2017-09-28T00:26:31.947Z,11.25
2017-09-28T00:28:34.007Z,11.32
2017-09-28T00:29:25.395Z,11.38
2017-09-28T00:31:18.867Z,11.43
2017-09-28T00:32:18.810Z,11.32
2017-09-28T00:34:19.760Z,11.32
2017-09-28T00:35:12.173Z,11.27
2017-09-28T00:37:05.596Z,11.20
2017-09-28T00:38:05.558Z,11.21
2017-09-28T00:40:06.681Z,11.19
2017-09-28T00:40:58.960Z,11.10
2017-09-28T00:42:52.398Z,11.20
2017-09-28T00:43:52.438Z,11.17
2017-09-28T00:45:46.830Z,11.17
2017-09-28T00:46:46.777Z,11.20
2017-09-28T00:48:40.207Z,11.07
2017-09-28T00:49:40.173Z,10.98
2017-09-28T00:51:33.585Z,10.95
2017-09-28T00:52:33.602Z,11.01
2017-09-28T00:54:27.081Z,11.09
2017-09-28T00:55:26.932Z,11.02
2017-09-28T00:57:20.510Z,10.84
2017-09-28T00:58:20.458Z,10.81
2017-09-28T01:00:21.434Z,10.86
2017-09-28T01:01:13.900Z,10.86
2017-09-28T01:03:14.865Z,10.86
2017-09-28T01:04:07.188Z,10.83
2017-09-28T01:06:00.670Z,10.78
2017-09-28T01:07:00.558Z,10.81
2017-09-28T01:08:54.013Z,10.81
2017-09-28T01:09:54.024Z,10.83
2017-09-28T01:11:47.454Z,10.80
2017-09-28T01:12:47.443Z,10.81
2017-09-28T01:14:40.886Z,10.59
2017-09-28T01:15:48.463Z,10.62
2017-09-28T01:17:34.245Z,10.51
2017-09-28T01:18:34.244Z,10.43
2017-09-28T01:20:27.699Z,10.58
2017-09-28T01:21:27.706Z,10.59
2017-09-28T01:23:21.014Z,10.63
2017-09-28T01:24:21.086Z,10.70
2017-09-28T01:26:14.497Z,10.65
2017-09-28T01:27:14.479Z,10.66
2017-09-28T01:29:15.449Z,10.59
2017-09-28T01:30:07.916Z,10.63
2017-09-28T01:32:01.279Z,10.59
2017-09-28T01:33:01.302Z,10.51
2017-09-28T01:34:54.633Z,10.44
2017-09-28T01:35:54.604Z,10.30
2017-09-28T01:37:48.181Z,10.34
2017-09-28T01:38:48.087Z,10.33
2017-09-28T01:40:41.462Z,10.37
2017-09-28T01:41:41.465Z,10.36
2017-09-28T01:43:34.962Z,10.42
2017-09-28T01:44:34.893Z,10.51
2017-09-28T01:46:37.148Z,10.52
2017-09-28T01:47:29.344Z,10.39
2017-09-28T01:49:22.809Z,10.39
2017-09-28T01:50:22.702Z,10.34
2017-09-28T01:52:23.956Z,10.25
2017-09-28T01:53:16.096Z,10.36
2017-09-28T01:55:18.242Z,10.42
2017-09-28T01:56:10.451Z,10.37
2017-09-28T01:58:11.635Z,10.36
2017-09-28T01:59:03.940Z,10.36
2017-09-28T02:00:57.325Z,10.33
2017-09-28T02:01:57.283Z,10.36
2017-09-28T02:03:50.660Z,10.36
2017-09-28T02:04:50.747Z,10.40
2017-09-28T02:06:51.804Z,10.36
2017-09-28T02:07:44.108Z,10.40
2017-09-28T02:09:45.210Z,10.40
2017-09-28T02:10:37.530Z,10.37
2017-09-28T02:12:30.973Z,10.36
2017-09-28T02:13:30.960Z,10.21
2017-09-28T02:15:32.078Z,10.18
2017-09-28T02:16:24.387Z,10.22
2017-09-28T02:18:27.418Z,10.30
2017-09-28T02:19:26.485Z,10.22
2017-09-28T02:21:19.744Z,10.09
2017-09-28T02:22:12.163Z,10.06
2017-09-28T02:24:05.515Z,9.97
2017-09-28T02:25:05.482Z,9.93
2017-09-28T02:27:06.690Z,9.97
2017-09-28T02:27:59.015Z,9.93
2017-09-28T02:29:59.983Z,10.07
2017-09-28T02:30:52.340Z,10.07
2017-09-28T02:32:46.841Z,10.09
2017-09-28T02:33:46.753Z,10.07
2017-09-28T02:35:47.840Z,10.06
2017-09-28T02:36:40.133Z,10.09
2017-09-28T02:38:33.602Z,10.12
2017-09-28T02:39:33.606Z,10.10
2017-09-28T02:41:35.829Z,10.14
2017-09-28T02:42:26.928Z,10.18
2017-09-28T02:44:27.979Z,10.10
2017-09-28T02:45:20.397Z,10.00
2017-09-28T02:47:21.464Z,10.06
2017-09-28T02:48:13.749Z,10.01
2017-09-28T02:50:07.148Z,9.91
2017-09-28T02:51:07.114Z,9.86
2017-09-28T02:53:09.312Z,9.89
2017-09-28T02:54:00.570Z,9.85
2017-09-28T02:55:54.061Z,10.00
2017-09-28T02:56:53.972Z,10.00
2017-09-28T02:58:48.369Z,9.97
2017-09-28T02:59:48.418Z,9.93
2017-09-28T03:01:50.581Z,10.06
2017-09-28T03:02:41.812Z,10.01
2017-09-28T03:04:43.857Z,10.07
2017-09-28T03:05:35.262Z,10.01
2017-09-28T03:07:36.262Z,9.93
2017-09-28T03:08:28.603Z,10.00
2017-09-28T03:10:29.656Z,10.12
2017-09-28T03:11:22.016Z,10.17
2017-09-28T03:13:24.135Z,10.15
2017-09-28T03:14:16.431Z,10.21
2017-09-28T03:16:09.804Z,10.26
2017-09-28T03:17:09.805Z,10.17
2017-09-28T03:19:13.027Z,10.30
2017-09-28T03:20:05.264Z,10.24
2017-09-28T03:22:06.275Z,10.24
2017-09-28T03:22:58.629Z,10.36
2017-09-28T03:25:00.633Z,10.28
2017-09-28T03:25:52.114Z,10.33
2017-09-28T03:27:45.399Z,10.42
2017-09-28T03:28:45.454Z,10.39
2017-09-28T03:30:47.513Z,10.37
2017-09-28T03:31:39.803Z,10.33
2017-09-28T03:33:33.478Z,10.36
2017-09-28T03:34:33.261Z,10.34
2017-09-28T03:36:34.327Z,10.24
2017-09-28T03:37:26.644Z,10.30
2017-09-28T03:39:27.720Z,10.24
2017-09-28T03:40:20.009Z,10.24
2017-09-28T03:42:22.240Z,10.14
2017-09-28T03:43:14.434Z,10.25
2017-09-28T03:45:15.615Z,10.26
2017-09-28T03:46:07.914Z,10.33
2017-09-28T03:48:01.461Z,10.25
2017-09-28T03:49:09.093Z,10.34
2017-09-28T03:51:03.468Z,10.30
2017-09-28T03:51:54.653Z,10.32
2017-09-28T03:53:56.813Z,10.32
2017-09-28T03:54:49.206Z,10.26
2017-09-28T03:56:50.207Z,10.18
2017-09-28T03:57:50.337Z,10.18
2017-09-28T03:59:43.694Z,10.19
2017-09-28T04:00:43.796Z,10.17
2017-09-28T04:02:37.989Z,10.17
2017-09-28T04:03:30.316Z,10.19
2017-09-28T04:05:23.686Z,10.19
2017-09-28T04:06:23.675Z,10.32
2017-09-28T04:08:18.101Z,10.18
2017-09-28T04:09:18.103Z,10.17
2017-09-28T04:11:21.386Z,10.24
2017-09-28T04:12:21.245Z,10.21
2017-09-28T04:14:06.883Z,10.30
2017-09-28T04:15:06.879Z,10.24
2017-09-28T04:17:09.168Z,10.30
2017-09-28T04:18:00.348Z,10.34
2017-09-28T04:20:02.309Z,10.25
2017-09-28T04:20:53.698Z,10.30
2017-09-28T04:22:47.127Z,10.21
2017-09-28T04:23:47.142Z,10.10
2017-09-28T04:25:40.525Z,10.30
2017-09-28T04:26:40.491Z,10.36
2017-09-28T04:28:33.929Z,10.37
2017-09-28T04:29:33.951Z,10.33
2017-09-28T04:31:35.989Z,10.18
2017-09-28T04:32:28.349Z,10.15
2017-09-28T04:34:21.794Z,10.12
2017-09-28T04:35:21.693Z,10.15
2017-09-28T04:37:15.245Z,10.10
2017-09-28T04:38:15.127Z,10.10
2017-09-28T04:40:08.515Z,10.12
2017-09-28T04:41:08.512Z,10.12
2017-09-28T04:43:01.962Z,10.03
2017-09-28T04:44:01.930Z,10.09
2017-09-28T04:45:55.333Z,10.14
2017-09-28T04:46:55.835Z,10.06
2017-09-28T04:48:48.745Z,10.12
2017-09-28T04:49:48.746Z,10.14
2017-09-28T04:51:42.176Z,10.04
2017-09-28T04:52:42.147Z,10.06
2017-09-28T04:54:35.595Z,10.14
2017-09-28T04:55:35.522Z,10.12
2017-09-28T04:57:36.611Z,10.03
2017-09-28T04:58:28.965Z,10.07
2017-09-28T05:00:22.353Z,10.04
2017-09-28T05:01:22.357Z,10.17
2017-09-28T05:03:23.545Z,10.09
2017-09-28T05:04:15.816Z,10.10
2017-09-28T05:06:09.390Z,10.09
2017-09-28T05:07:09.273Z,10.06
2017-09-28T05:09:02.659Z,10.00
2017-09-28T05:10:02.668Z,10.07
2017-09-28T05:11:56.120Z,10.04
2017-09-28T05:12:56.097Z,10.10
2017-09-28T05:14:49.476Z,10.18
2017-09-28T05:15:49.497Z,10.18
2017-09-28T05:17:42.966Z,10.06
2017-09-28T05:18:42.930Z,10.04
2017-09-28T05:20:36.386Z,10.10
2017-09-28T05:21:36.295Z,10.04
2017-09-28T05:23:37.406Z,10.03
2017-09-28T05:24:29.708Z,10.03
2017-09-28T05:26:30.920Z,10.09
2017-09-28T05:27:23.100Z,10.14
2017-09-28T05:29:16.591Z,10.15
2017-09-28T05:30:16.499Z,10.18
2017-09-28T05:32:09.925Z,10.12
2017-09-28T05:33:09.946Z,10.12
2017-09-28T05:35:04.339Z,10.19
2017-09-28T05:36:04.354Z,10.30
2017-09-28T05:37:58.768Z,10.34
2017-09-28T05:38:58.681Z,10.30
2017-09-28T05:40:52.144Z,10.33
2017-09-28T05:41:52.099Z,10.25
2017-09-28T05:43:45.533Z,10.33
2017-09-28T05:44:45.470Z,10.15
2017-09-28T05:46:46.696Z,10.25
2017-09-28T05:47:38.913Z,10.32
2017-09-28T05:49:41.016Z,10.44
2017-09-28T05:50:32.349Z,10.36
2017-09-28T05:52:33.371Z,10.40
2017-09-28T05:53:25.682Z,10.53
2017-09-28T05:55:26.799Z,10.63
2017-09-28T05:56:19.099Z,10.60
2017-09-28T05:58:13.549Z,10.70
2017-09-28T05:59:13.485Z,10.63
2017-09-28T06:01:07.902Z,10.66
2017-09-28T06:02:07.934Z,10.74
2017-09-28T06:04:01.375Z,10.80
2017-09-28T06:05:01.358Z,10.81
2017-09-28T06:06:54.659Z,10.81
2017-09-28T06:07:54.780Z,10.78
2017-09-28T06:09:55.783Z,10.94
2017-09-28T06:10:48.080Z,10.95
2017-09-28T06:12:41.548Z,11.03
2017-09-28T06:13:41.533Z,11.06
2017-09-28T06:15:34.933Z,11.11
2017-09-28T06:16:34.896Z,11.25
2017-09-28T06:18:28.360Z,11.24
2017-09-28T06:19:28.296Z,11.27
2017-09-28T06:21:22.737Z,11.36
2017-09-28T06:22:22.682Z,11.47
2017-09-28T06:24:23.778Z,11.49
2017-09-28T06:25:16.103Z,11.52
2017-09-28T06:27:09.512Z,11.52
2017-09-28T06:28:09.475Z,11.52
2017-09-28T06:30:02.971Z,11.65
2017-09-28T06:31:02.850Z,11.68
2017-09-28T06:33:05.732Z,11.83
2017-09-28T06:33:57.092Z,11.87
2017-09-28T06:35:50.344Z,11.87
2017-09-28T06:36:50.369Z,11.87
2017-09-28T06:38:55.433Z,12.04
2017-09-28T06:39:45.258Z,12.01
2017-09-28T06:41:48.795Z,12.06
2017-09-28T06:42:39.985Z,12.08
2017-09-28T06:44:43.987Z,12.12
2017-09-28T06:45:41.893Z,12.11
2017-09-28T06:47:37.161Z,12.16
2017-09-28T06:48:34.998Z,12.24
2017-09-28T06:50:30.434Z,12.30
2017-09-28T06:51:29.436Z,12.33
2017-09-28T06:53:24.827Z,12.41
2017-09-28T06:54:24.713Z,12.31
2017-09-28T06:56:09.453Z,12.38
2017-09-28T06:57:09.540Z,12.44
2017-09-28T06:59:03.974Z,12.54
2017-09-28T07:00:03.992Z,12.54
2017-09-28T07:02:06.148Z,12.60
2017-09-28T07:03:06.965Z,12.75
2017-09-28T07:04:59.404Z,12.71
2017-09-28T07:05:51.966Z,12.78
2017-09-28T07:07:55.034Z,12.88
2017-09-28T07:08:46.283Z,12.96
2017-09-28T07:10:49.232Z,13.09
2017-09-28T07:11:49.319Z,13.09
2017-09-28T07:13:44.294Z,13.18
2017-09-28T07:14:43.735Z,13.22
2017-09-28T07:16:38.135Z,13.29
2017-09-28T07:17:29.528Z,13.33
2017-09-28T07:19:31.515Z,13.38
2017-09-28T07:20:22.985Z,13.43
2017-09-28T07:22:25.829Z,13.54
2017-09-28T07:23:17.218Z,13.46
2017-09-28T07:25:20.325Z,13.61
2017-09-28T07:26:20.203Z,13.63
2017-09-28T07:28:15.699Z,13.76
2017-09-28T07:29:14.812Z,13.70
2017-09-28T07:30:59.516Z,13.70
2017-09-28T07:32:08.319Z,13.77
2017-09-28T07:34:02.514Z,13.94
2017-09-28T07:34:54.038Z,13.92
2017-09-28T07:36:57.245Z,14.04
2017-09-28T07:37:48.426Z,13.99
2017-09-28T07:39:51.591Z,14.04
2017-09-28T07:40:42.833Z,14.09
2017-09-28T07:42:44.888Z,14.20
2017-09-28T07:43:44.712Z,14.25
2017-09-28T07:45:38.360Z,14.21
2017-09-28T07:46:30.597Z,14.27
2017-09-28T07:48:33.661Z,14.31
2017-09-28T07:49:25.109Z,14.46
2017-09-28T07:51:26.052Z,14.44
2017-09-28T07:52:27.040Z,14.49
2017-09-28T07:54:20.551Z,14.65
2017-09-28T07:55:11.776Z,14.62
2017-09-28T07:57:15.856Z,14.83
2017-09-28T07:58:07.281Z,14.84
2017-09-28T08:00:01.573Z,14.93
2017-09-28T08:01:01.649Z,15.08
2017-09-28T08:02:55.998Z,15.13
2017-09-28T08:03:56.161Z,15.13
2017-09-28T08:05:50.511Z,15.19
2017-09-28T08:06:50.578Z,15.26
2017-09-28T08:08:53.577Z,15.35
2017-09-28T08:09:44.852Z,15.39
2017-09-28T08:11:49.862Z,15.46
2017-09-28T08:12:40.247Z,15.46
2017-09-28T08:14:33.725Z,15.54
2017-09-28T08:15:33.686Z,15.61
2017-09-28T08:17:37.666Z,15.70
2017-09-28T08:18:29.130Z,15.67
2017-09-28T08:20:32.136Z,15.78
2017-09-28T08:21:31.193Z,15.76
2017-09-28T08:23:26.502Z,15.84
2017-09-28T08:24:26.580Z,15.81
2017-09-28T08:26:12.209Z,15.93
2017-09-28T08:27:12.307Z,16.12
2017-09-28T08:29:06.465Z,16.15
2017-09-28T08:30:14.379Z,16.18
2017-09-28T08:32:08.808Z,16.25
2017-09-28T08:33:08.725Z,16.25
2017-09-28T08:34:53.714Z,16.34
2017-09-28T08:35:53.535Z,16.37
2017-09-28T08:37:46.846Z,16.49
2017-09-28T08:38:46.727Z,16.55
2017-09-28T08:40:50.503Z,16.60
2017-09-28T08:41:42.132Z,16.73
2017-09-28T08:43:36.258Z,16.78
2017-09-28T08:44:36.377Z,16.63
2017-09-28T08:46:40.411Z,16.70
2017-09-28T08:47:30.673Z,16.73
2017-09-28T08:49:25.135Z,16.75
2017-09-28T08:50:32.715Z,16.86
2017-09-28T08:52:25.803Z,16.89
2017-09-28T08:53:28.185Z,16.90
2017-09-28T08:55:22.580Z,16.98
2017-09-28T08:56:13.126Z,17.00
2017-09-28T08:58:07.363Z,17.06
2017-09-28T08:59:07.407Z,17.13
2017-09-28T09:01:11.488Z,17.10
2017-09-28T09:02:12.559Z,17.08
2017-09-28T09:04:04.572Z,17.20
2017-09-28T09:04:56.223Z,17.22
2017-09-28T09:06:49.023Z,17.17
2017-09-28T09:07:57.560Z,17.14
2017-09-28T09:09:52.016Z,17.13
2017-09-28T09:10:43.527Z,17.23
2017-09-28T09:12:46.473Z,17.20
2017-09-28T09:13:38.044Z,17.23
2017-09-28T09:15:41.826Z,17.32
2017-09-28T09:16:33.412Z,17.41
2017-09-28T09:18:36.582Z,17.43
2017-09-28T09:19:27.861Z,17.44
2017-09-28T09:21:30.754Z,17.57
2017-09-28T09:22:22.340Z,17.62
2017-09-28T09:24:26.756Z,17.59
2017-09-28T09:25:18.469Z,17.73
2017-09-28T09:27:21.402Z,17.81
2017-09-28T09:28:12.927Z,17.81
2017-09-28T09:30:16.775Z,17.85
2017-09-28T09:31:08.371Z,17.87
2017-09-28T09:33:11.203Z,17.95
2017-09-28T09:34:02.660Z,18.06
2017-09-28T09:35:57.196Z,18.17
2017-09-28T09:36:57.083Z,18.17
2017-09-28T09:38:51.449Z,18.31
2017-09-28T09:39:51.481Z,18.27
2017-09-28T09:41:45.804Z,18.27
2017-09-28T09:42:45.949Z,18.33
2017-09-28T09:44:40.314Z,18.42
2017-09-28T09:45:40.425Z,18.36
2017-09-28T09:47:43.470Z,18.49
2017-09-28T09:48:34.753Z,18.42
2017-09-28T09:50:30.336Z,18.50
2017-09-28T09:51:37.785Z,18.50
2017-09-28T09:53:24.443Z,18.55
2017-09-28T09:54:24.358Z,18.59
2017-09-28T09:56:28.284Z,18.77
2017-09-28T09:57:26.696Z,18.87
2017-09-28T09:59:11.309Z,19.01
2017-09-28T10:00:11.563Z,19.17
2017-09-28T10:02:15.411Z,19.46
2017-09-28T10:03:05.959Z,19.66
2017-09-28T10:04:59.037Z,19.70
2017-09-28T10:05:59.104Z,20.18
2017-09-28T10:08:01.236Z,21.16
2017-09-28T10:08:52.502Z,21.38
2017-09-28T10:10:45.876Z,21.81
2017-09-28T10:11:45.911Z,21.95
2017-09-28T10:13:40.356Z,22.07
2017-09-28T10:14:40.339Z,22.56
2017-09-28T10:16:33.737Z,22.99
2017-09-28T10:17:33.790Z,22.74
2017-09-28T10:19:27.198Z,23.11
2017-09-28T10:20:27.246Z,23.08
2017-09-28T10:22:20.665Z,23.75
2017-09-28T10:23:20.576Z,23.94
2017-09-28T10:25:14.036Z,23.72
2017-09-28T10:26:14.050Z,23.46
2017-09-28T10:28:08.536Z,23.76
2017-09-28T10:29:08.479Z,23.57
2017-09-28T10:31:01.983Z,23.50
2017-09-28T10:32:01.866Z,23.57
2017-09-28T10:33:55.438Z,24.05
2017-09-28T10:34:55.270Z,24.49
2017-09-28T10:36:48.761Z,25.09
2017-09-28T10:37:48.732Z,25.01
2017-09-28T10:39:42.150Z,24.90
2017-09-28T10:40:42.119Z,24.57
2017-09-28T10:42:35.547Z,24.53
2017-09-28T10:43:35.558Z,24.38
2017-09-28T10:45:29.053Z,24.45
2017-09-28T10:46:28.994Z,24.97
2017-09-28T10:48:22.418Z,25.01
2017-09-28T10:49:22.415Z,25.07
2017-09-28T10:51:16.906Z,25.12
2017-09-28T10:52:16.890Z,25.38
2017-09-28T10:54:10.347Z,25.47
2017-09-28T10:55:10.312Z,25.24
2017-09-28T10:57:03.717Z,25.31
2017-09-28T10:58:03.795Z,24.87
2017-09-28T10:59:57.151Z,24.50
2017-09-28T11:00:57.173Z,24.49
2017-09-28T11:02:50.585Z,24.13
2017-09-28T11:03:50.586Z,23.97
2017-09-28T11:05:44.036Z,23.47
2017-09-28T11:06:44.013Z,23.46
2017-09-28T11:08:37.548Z,23.46
2017-09-28T11:09:37.434Z,23.22
2017-09-28T11:11:30.907Z,23.19
2017-09-28T11:12:30.998Z,23.09
2017-09-28T11:14:24.404Z,22.67
2017-09-28T11:15:24.311Z,22.57
2017-09-28T11:17:17.742Z,22.44
2017-09-28T11:18:17.728Z,22.31
2017-09-28T11:20:12.214Z,21.97
2017-09-28T11:21:12.166Z,21.76
2017-09-28T11:23:06.616Z,21.75
2017-09-28T11:24:06.610Z,21.54
2017-09-28T11:26:00.097Z,21.48
2017-09-28T11:27:00.046Z,21.53
2017-09-28T11:28:54.508Z,21.34
2017-09-28T11:29:54.489Z,21.30
2017-09-28T11:31:48.964Z,21.30
2017-09-28T11:32:48.890Z,21.38
2017-09-28T11:34:42.320Z,21.26
2017-09-28T11:35:42.366Z,21.24
2017-09-28T11:37:36.756Z,21.23
2017-09-28T11:38:36.748Z,21.32
2017-09-28T11:40:30.256Z,21.21
2017-09-28T11:41:30.195Z,21.32
2017-09-28T11:43:24.618Z,21.42
2017-09-28T11:44:24.663Z,21.57
2017-09-28T11:46:19.070Z,21.75
2017-09-28T11:47:19.007Z,21.83
2017-09-28T11:49:12.415Z,22.13
2017-09-28T11:50:12.426Z,22.13
2017-09-28T11:52:06.917Z,22.41
2017-09-28T11:53:06.854Z,22.59
2017-09-28T11:55:01.283Z,22.62
2017-09-28T11:56:01.290Z,22.69
2017-09-28T11:57:55.724Z,22.44
2017-09-28T11:58:55.751Z,22.27
2017-09-28T12:00:49.137Z,22.10
2017-09-28T12:01:49.188Z,22.09
2017-09-28T12:03:44.552Z,22.04
2017-09-28T12:04:44.581Z,21.98
2017-09-28T12:06:38.032Z,21.66
2017-09-28T12:07:38.052Z,21.76
2017-09-28T12:09:31.476Z,21.72
2017-09-28T12:10:31.418Z,21.79
2017-09-28T12:12:24.804Z,21.76
2017-09-28T12:13:24.855Z,21.82
2017-09-28T12:15:19.349Z,21.90
2017-09-28T12:16:19.287Z,21.91
2017-09-28T12:18:13.735Z,21.79
2017-09-28T12:19:13.717Z,21.69
2017-09-28T12:21:07.105Z,21.81
2017-09-28T12:22:07.168Z,21.91
2017-09-28T12:24:01.530Z,21.90
2017-09-28T12:25:01.611Z,21.97
2017-09-28T12:26:54.987Z,22.17
2017-09-28T12:27:54.957Z,22.20
2017-09-28T12:29:48.400Z,22.31
2017-09-28T12:30:48.453Z,22.46
2017-09-28T12:32:41.817Z,23.08
2017-09-28T12:33:41.892Z,23.27
2017-09-28T12:35:35.311Z,23.32
2017-09-28T12:36:35.340Z,23.46
2017-09-28T12:38:28.714Z,23.05
2017-09-28T12:39:28.739Z,23.04
2017-09-28T12:41:23.131Z,23.08
2017-09-28T12:42:23.175Z,22.89
2017-09-28T12:44:16.638Z,22.65
2017-09-28T12:45:16.571Z,22.59
2017-09-28T12:47:09.971Z,22.28
2017-09-28T12:48:09.988Z,22.38
2017-09-28T12:50:03.396Z,22.41
2017-09-28T12:51:03.409Z,22.34
2017-09-28T12:52:57.859Z,22.34
2017-09-28T12:53:57.839Z,22.27
2017-09-28T12:55:53.258Z,22.31
2017-09-28T12:56:53.252Z,22.34
2017-09-28T12:58:46.671Z,22.41
2017-09-28T12:59:46.695Z,22.39
2017-09-28T13:01:40.083Z,22.46
2017-09-28T13:02:40.142Z,22.57
2017-09-28T13:04:33.485Z,22.72
2017-09-28T13:05:33.536Z,22.77
2017-09-28T13:07:26.914Z,22.71
2017-09-28T13:08:26.966Z,22.80
2017-09-28T13:10:20.345Z,22.80
2017-09-28T13:11:20.474Z,22.72
2017-09-28T13:13:13.852Z,22.80
2017-09-28T13:14:13.952Z,22.78
2017-09-28T13:16:08.240Z,22.68
2017-09-28T13:17:08.220Z,22.65
2017-09-28T13:19:01.663Z,22.57
2017-09-28T13:20:01.657Z,22.50
2017-09-28T13:21:56.038Z,22.67
2017-09-28T13:22:56.069Z,22.56
2017-09-28T13:24:49.496Z,22.69
2017-09-28T13:25:49.451Z,22.69
2017-09-28T13:27:42.935Z,22.83
2017-09-28T13:28:42.866Z,22.72
2017-09-28T13:30:36.358Z,22.56
2017-09-28T13:31:36.341Z,22.57
2017-09-28T13:33:30.722Z,22.60
2017-09-28T13:34:30.783Z,22.52
2017-09-28T13:36:25.175Z,22.68
2017-09-28T13:37:25.151Z,22.68
2017-09-28T13:39:19.573Z,22.57
2017-09-28T13:40:19.633Z,22.49
2017-09-28T13:42:12.955Z,22.49
2017-09-28T13:43:13.010Z,22.47
2017-09-28T13:45:06.545Z,22.41
2017-09-28T13:46:06.571Z,22.39
2017-09-28T13:48:00.906Z,22.23
2017-09-28T13:49:00.920Z,22.20
2017-09-28T13:50:55.308Z,22.22
2017-09-28T13:51:55.300Z,22.25
2017-09-28T13:53:48.721Z,22.32
2017-09-28T13:54:48.711Z,22.44
2017-09-28T13:56:42.139Z,22.35
2017-09-28T13:57:42.101Z,22.34
2017-09-28T13:59:35.569Z,22.28
2017-09-28T14:00:35.544Z,22.14
2017-09-28T14:02:28.926Z,22.28
2017-09-28T14:03:28.991Z,22.43
2017-09-28T14:05:22.432Z,22.28
2017-09-28T14:06:22.425Z,22.23
2017-09-28T14:08:15.721Z,22.32
2017-09-28T14:09:15.759Z,22.39
2017-09-28T14:11:10.290Z,22.53
2017-09-28T14:12:10.203Z,22.69
2017-09-28T14:14:04.459Z,22.71
2017-09-28T14:15:04.503Z,22.67
2017-09-28T14:16:57.861Z,22.71
2017-09-28T14:17:57.860Z,22.89
2017-09-28T14:19:52.303Z,23.20
2017-09-28T14:20:52.321Z,23.34
2017-09-28T14:22:46.733Z,23.65
2017-09-28T14:23:46.703Z,23.57
2017-09-28T14:25:50.921Z,23.82
2017-09-28T14:26:50.875Z,23.70
2017-09-28T14:28:35.634Z,23.71
2017-09-28T14:29:35.624Z,23.79
2017-09-28T14:31:29.144Z,23.86
2017-09-28T14:32:29.152Z,23.70
2017-09-28T14:34:23.668Z,24.08
2017-09-28T14:35:23.759Z,24.26
2017-09-28T14:37:18.418Z,24.22
2017-09-28T14:38:28.634Z,24.29
2017-09-28T14:40:14.555Z,24.24
2017-09-28T14:41:22.217Z,23.95
2017-09-28T14:43:09.030Z,23.75
2017-09-28T14:44:09.001Z,23.61
2017-09-28T14:46:12.484Z,23.29
2017-09-28T14:49:06.840Z,22.84
2017-09-28T14:50:10.012Z,22.89
2017-09-28T14:52:01.818Z,22.78
2017-09-28T14:52:54.057Z,22.77
2017-09-28T14:55:06.275Z,22.47
2017-09-28T14:55:50.299Z,22.44
2017-09-28T14:57:45.122Z,22.12
2017-09-28T14:58:44.386Z,22.07
2017-09-28T15:00:44.776Z,21.98
2017-09-28T15:01:37.299Z,21.76
2017-09-28T15:03:40.627Z,21.61
2017-09-28T15:04:41.237Z,21.59
2017-09-28T15:06:35.511Z,21.38
2017-09-28T15:07:35.518Z,21.34
2017-09-28T15:09:30.191Z,21.20
2017-09-28T15:10:29.052Z,21.20
2017-09-28T15:12:23.487Z,21.19
2017-09-28T15:13:15.914Z,21.16
2017-09-28T15:15:19.006Z,21.01
2017-09-28T15:16:10.201Z,21.01
2017-09-28T15:18:05.876Z,20.84
2017-09-28T15:19:14.860Z,20.69
2017-09-28T15:21:09.920Z,20.72
2017-09-28T15:22:11.744Z,20.72
2017-09-28T15:23:56.425Z,20.74
2017-09-28T15:24:57.290Z,20.68
2017-09-28T15:26:51.758Z,20.71
2017-09-28T15:27:51.126Z,20.77
2017-09-28T15:29:44.620Z,20.71
2017-09-28T15:30:44.415Z,20.71
2017-09-28T15:32:52.884Z,20.61
2017-09-28T15:33:53.051Z,20.71
2017-09-28T15:35:47.440Z,20.86
2017-09-28T15:36:47.194Z,20.86
2017-09-28T15:38:42.062Z,20.90
2017-09-28T15:39:41.845Z,20.96
2017-09-28T15:41:36.643Z,20.95
2017-09-28T15:42:36.287Z,20.91
2017-09-28T15:44:30.704Z,20.93
2017-09-28T15:45:30.825Z,20.89
2017-09-28T15:47:23.859Z,20.99
2017-09-28T15:48:24.212Z,20.91
2017-09-28T15:50:18.790Z,20.83
2017-09-28T15:51:18.273Z,20.93
2017-09-28T15:53:13.257Z,20.66
2017-09-28T15:54:14.371Z,20.65
2017-09-28T15:56:08.015Z,20.62
2017-09-28T15:57:07.170Z,20.43
2017-09-28T15:59:01.568Z,20.25
2017-09-28T16:00:03.188Z,20.10
2017-09-28T16:01:56.963Z,20.08
2017-09-28T16:02:56.891Z,20.00
2017-09-28T16:04:53.762Z,19.86
2017-09-28T16:05:55.051Z,19.90
2017-09-28T16:07:48.920Z,19.79
2017-09-28T16:08:48.959Z,19.75
2017-09-28T16:10:43.178Z,19.78
2017-09-28T16:11:45.371Z,19.75
2017-09-28T16:13:41.410Z,19.76
2017-09-28T16:14:38.503Z,19.73
2017-09-28T16:16:32.012Z,19.70
2017-09-28T16:17:34.584Z,19.75
2017-09-28T16:20:15.113Z,19.65
2017-09-28T16:21:15.138Z,19.58
2017-09-28T16:23:08.603Z,19.58
2017-09-28T16:24:08.589Z,19.54
2017-09-28T16:26:03.304Z,19.61
2017-09-28T16:27:02.548Z,19.55
2017-09-28T16:28:58.191Z,19.51
2017-09-28T16:30:00.163Z,19.48
2017-09-28T16:31:52.964Z,19.43
2017-09-28T16:32:52.925Z,19.39
2017-09-28T16:34:47.582Z,19.28
2017-09-28T16:35:46.438Z,19.38
2017-09-28T16:37:42.782Z,19.32
2017-09-28T16:38:42.950Z,19.28
2017-09-28T16:40:35.963Z,19.14
2017-09-28T16:41:36.048Z,19.08
2017-09-28T16:43:30.306Z,18.99
2017-09-28T16:44:30.352Z,18.98
2017-09-28T16:46:23.807Z,18.90
2017-09-28T16:47:23.912Z,18.86
2017-09-28T16:49:18.588Z,18.77
2017-09-28T16:50:28.024Z,18.80
2017-09-28T16:52:12.542Z,18.76
2017-09-28T16:53:20.157Z,18.67
2017-09-28T16:55:05.905Z,18.49
2017-09-28T16:56:13.646Z,18.55
2017-09-28T16:58:01.359Z,18.43
2017-09-28T16:59:01.401Z,18.29
2017-09-28T17:01:03.597Z,18.29
2017-09-28T17:01:54.974Z,18.29
2017-09-28T17:03:58.156Z,18.15
2017-09-28T17:04:49.313Z,18.07
2017-09-28T17:06:46.363Z,17.94
2017-09-28T17:07:56.018Z,17.92
2017-09-28T17:09:49.021Z,17.82
2017-09-28T17:10:50.039Z,17.70
2017-09-28T17:12:34.694Z,17.57
2017-09-28T17:13:34.741Z,17.63
2017-09-28T17:15:36.704Z,17.48
2017-09-28T17:16:29.039Z,17.33
2017-09-28T17:18:32.159Z,17.29
2017-09-28T17:19:34.080Z,17.25
2017-09-28T17:21:17.974Z,17.25
2017-09-28T17:22:26.618Z,17.08
2017-09-28T17:24:11.558Z,17.06
2017-09-28T17:25:11.348Z,16.98
2017-09-28T17:27:14.264Z,16.85
2017-09-28T17:28:15.412Z,16.71
2017-09-28T17:30:06.554Z,16.68
2017-09-28T17:30:59.095Z,16.53
2017-09-28T17:32:54.438Z,16.55
2017-09-28T17:33:54.934Z,16.49
2017-09-28T17:35:57.840Z,16.49
2017-09-28T17:36:49.190Z,16.41
2017-09-28T17:38:44.117Z,16.34
2017-09-28T17:39:50.675Z,16.38
2017-09-28T17:41:38.847Z,16.22
2017-09-28T17:42:39.073Z,16.18
2017-09-28T17:44:34.159Z,16.18
2017-09-28T17:45:33.805Z,16.16
2017-09-28T17:47:29.225Z,16.15
2017-09-28T17:48:37.525Z,16.12
2017-09-28T17:50:31.844Z,15.99
2017-09-28T17:51:23.357Z,15.97
2017-09-28T17:53:18.691Z,15.86
2017-09-28T17:54:19.344Z,15.76
2017-09-28T17:56:14.279Z,15.75
2017-09-28T17:57:14.249Z,15.74
2017-09-28T17:59:07.495Z,15.74
2017-09-28T18:00:14.609Z,15.70
2017-09-28T18:02:02.835Z,15.61
2017-09-28T18:03:03.203Z,15.48
2017-09-28T18:04:59.941Z,15.46
2017-09-28T18:06:00.536Z,15.43
2017-09-28T18:07:55.155Z,15.49
2017-09-28T18:09:05.622Z,15.57
2017-09-28T18:10:48.070Z,15.60
2017-09-28T18:11:55.670Z,15.51
2017-09-28T18:13:52.214Z,15.39
2017-09-28T18:14:43.357Z,15.42
2017-09-28T18:16:39.335Z,15.39
2017-09-28T18:17:46.636Z,15.39
2017-09-28T18:19:33.746Z,15.33
2017-09-28T18:20:43.424Z,15.30
2017-09-28T18:22:26.721Z,15.26
2017-09-28T18:23:27.050Z,15.24
2017-09-28T18:25:30.798Z,15.19
2017-09-28T18:26:20.420Z,15.11
2017-09-28T18:28:13.462Z,15.13
2017-09-28T18:29:13.482Z,15.03
2017-09-28T18:31:06.555Z,14.99
2017-09-28T18:32:15.329Z,15.01
2017-09-28T18:34:10.777Z,15.02
2017-09-28T18:35:01.379Z,15.01
2017-09-28T18:36:56.077Z,14.95
2017-09-28T18:37:56.663Z,14.91
2017-09-28T18:39:49.771Z,14.90
2017-09-28T18:40:50.214Z,14.93
2017-09-28T18:42:43.653Z,14.75
2017-09-28T18:43:52.502Z,14.64